Terminal Aerodrome Forecast
Issued by NWS Wakefield, VA

Home | Current Version | Previous Version | Text Only | Print | Product List | Glossary On
Versions: 1 2 3 4 5 6 7 8 9 10 11 12 13 14 15 16 17 18 19
154
FTUS41 KAKQ 070552 RRA
TAFORF
TAF
KORF 070552Z 0706/0806 04006KT P6SM OVC120
     FM071400 04013G22KT P6SM OVC120
     FM071800 03020G28KT P6SM OVC100
     FM080000 02022G30KT P6SM OVC050=

USA.gov is the U.S. government's official web portal to all federal, state and local government web resources and services.